Time;durP1;ratioP1;P1;durP2;ratioP2;P2;SDS_P1;SDS_P2;PMS_P1;PMS_P2;Temp;Humidity;BMP_temperature;BMP_pressure;BME280_temperature;BME280_humidity;BME280_pressure;Samples;Min_cycle;Max_cycle;Signal;HPM_P1;HPM_P2
2023/06/14 00:00:40;;;;;;;4.95;4.55;;;;;;;19.16;37.81;96777.84;4758994;29;20482;-79
2023/06/14 00:03:11;;;;;;;5.40;4.90;;;;;;;19.15;37.65;96779.72;4760746;29;20332;-78
2023/06/14 00:05:42;;;;;;;4.68;4.28;;;;;;;19.12;37.53;96776.91;4774597;29;20196;-78
2023/06/14 00:08:09;;;;;;;4.75;4.10;;;;;;;19.02;38.11;96772.69;4758930;29;20487;-78
2023/06/14 00:10:35;;;;;;;5.75;4.72;;;;;;;18.79;38.98;96772.03;4787893;29;20310;-79
2023/06/14 00:13:04;;;;;;;5.03;4.53;;;;;;;18.71;39.83;96765.63;4772045;29;20445;-78
2023/06/14 00:15:33;;;;;;;4.97;4.47;;;;;;;18.40;40.22;96761.19;4761777;29;20423;-78
2023/06/14 00:18:02;;;;;;;5.30;4.70;;;;;;;18.58;39.65;96769.19;4784984;29;20224;-78
2023/06/14 00:20:29;;;;;;;5.07;4.68;;;;;;;18.48;40.36;96757.81;4759181;29;20191;-78
2023/06/14 00:22:55;;;;;;;4.93;4.50;;;;;;;18.44;40.00;96762.16;4771582;29;20195;-79
2023/06/14 00:25:23;;;;;;;4.80;4.40;;;;;;;18.39;40.17;96774.72;4772956;29;20511;-78
2023/06/14 00:27:48;;;;;;;4.63;4.22;;;;;;;18.36;40.05;96762.91;4785213;29;20396;-78
2023/06/14 00:30:14;;;;;;;5.65;4.40;;;;;;;18.39;39.54;96770.22;4790558;29;20390;-78
2023/06/14 00:32:40;;;;;;;5.45;4.65;;;;;;;18.35;39.54;96758.69;4775670;29;20049;-78
2023/06/14 00:35:07;;;;;;;5.32;4.47;;;;;;;18.30;39.69;96764.09;4756941;29;20368;-78
2023/06/14 00:37:33;;;;;;;5.70;5.10;;;;;;;18.25;39.69;96759.78;4788678;29;20288;-78
2023/06/14 00:39:58;;;;;;;4.88;4.38;;;;;;;18.35;39.54;96761.34;4777324;29;20385;-78
2023/06/14 00:42:25;;;;;;;4.93;4.43;;;;;;;18.35;39.96;96761.34;4788205;29;20597;-78
2023/06/14 00:44:50;;;;;;;4.88;4.38;;;;;;;18.31;39.37;96761.16;4758101;29;20510;-78
2023/06/14 00:47:19;;;;;;;4.53;4.13;;;;;;;18.38;39.09;96763.38;4787790;29;20376;-78
2023/06/14 00:49:48;;;;;;;4.78;4.32;;;;;;;18.49;38.84;96754.13;4772743;29;20202;-78
2023/06/14 00:52:16;;;;;;;5.15;4.68;;;;;;;18.46;38.96;96752.09;4786219;29;20232;-78
2023/06/14 00:54:42;;;;;;;5.72;5.15;;;;;;;18.37;39.69;96759.19;4776528;29;20474;-79
2023/06/14 00:57:08;;;;;;;4.60;4.20;;;;;;;18.40;39.41;96758.56;4752995;29;20197;-78
2023/06/14 00:59:38;;;;;;;4.90;4.40;;;;;;;18.42;39.52;96763.53;4786602;29;20176;-78
2023/06/14 01:02:03;;;;;;;6.13;4.70;;;;;;;18.30;40.01;96766.75;4772967;29;20299;-79
2023/06/14 01:04:29;;;;;;;5.07;4.60;;;;;;;18.22;40.12;96767.50;4808424;23;20215;-79
2023/06/14 01:07:24;;;;;;;5.07;4.57;;;;;;;18.30;39.86;96777.28;4808937;29;20215;-79
2023/06/14 01:10:08;;;;;;;5.32;4.82;;;;;;;18.23;40.11;96774.31;4786653;29;20671;-78
2023/06/14 01:12:49;;;;;;;5.63;4.63;;;;;;;18.11;40.24;96774.88;4792685;29;20202;-80
2023/06/14 01:15:15;;;;;;;6.38;4.45;;;;;;;17.79;40.67;96774.84;4804471;29;20103;-80
2023/06/14 01:17:43;;;;;;;5.43;4.88;;;;;;;17.49;41.35;96780.81;4801935;29;20079;-80
2023/06/14 01:20:14;;;;;;;5.25;4.75;;;;;;;17.90;40.24;96785.16;4798171;29;20115;-78
2023/06/14 01:22:49;;;;;;;5.32;4.13;;;;;;;18.01;40.33;96783.03;4801179;29;20207;-79
2023/06/14 01:25:16;;;;;;;5.55;4.72;;;;;;;17.88;40.10;96782.06;4790032;29;20283;-78
2023/06/14 01:27:42;;;;;;;4.85;4.35;;;;;;;17.77;40.46;96782.25;4797754;29;20199;-78
2023/06/14 01:30:09;;;;;;;5.35;4.85;;;;;;;17.86;39.99;96778.91;4795119;29;20226;-78
2023/06/14 01:32:35;;;;;;;5.82;5.20;;;;;;;17.86;40.00;96778.91;4814363;29;20455;-78
2023/06/14 01:35:01;;;;;;;5.10;4.60;;;;;;;17.96;39.75;96789.22;4801122;29;20291;-78
2023/06/14 01:37:26;;;;;;;5.45;4.60;;;;;;;17.90;39.89;96774.63;4816496;29;20275;-78
2023/06/14 01:39:52;;;;;;;5.20;4.70;;;;;;;18.02;39.53;96785.38;4790063;29;20168;-78
2023/06/14 01:42:18;;;;;;;4.70;4.30;;;;;;;18.00;39.23;96782.28;4815831;29;20466;-78
2023/06/14 01:44:44;;;;;;;5.57;4.25;;;;;;;18.01;39.68;96783.84;4803716;29;20219;-78
2023/06/14 01:47:10;;;;;;;5.43;4.03;;;;;;;18.06;39.71;96788.19;4807799;29;20286;-80
2023/06/14 01:49:35;;;;;;;4.50;4.18;;;;;;;18.05;39.58;96791.91;4812473;29;20290;-79
2023/06/14 01:52:01;;;;;;;5.60;4.65;;;;;;;18.05;39.52;96782.13;4796885;29;20208;-78
2023/06/14 01:54:27;;;;;;;5.38;4.88;;;;;;;18.03;39.75;96789.56;4808380;29;20300;-78
2023/06/14 01:56:52;;;;;;;6.40;5.30;;;;;;;18.05;40.08;96790.03;4800897;29;20334;-78
2023/06/14 01:59:18;;;;;;;5.97;5.10;;;;;;;18.06;39.69;96788.97;4793418;29;20519;-78
2023/06/14 02:01:46;;;;;;;4.72;4.28;;;;;;;18.09;39.73;96792.84;4800505;29;20423;-78
2023/06/14 02:04:11;;;;;;;5.63;4.72;;;;;;;18.01;40.49;96786.47;4776223;29;20451;-78
2023/06/14 02:06:37;;;;;;;5.50;5.00;;;;;;;17.92;40.51;96793.53;4777980;29;20099;-78
2023/06/14 02:09:02;;;;;;;6.15;4.97;;;;;;;17.88;40.11;96792.59;4796915;29;20294;-78
2023/06/14 02:11:28;;;;;;;5.25;4.75;;;;;;;17.83;40.39;96790.81;4778794;29;20292;-80
2023/06/14 02:13:54;;;;;;;5.28;4.60;;;;;;;17.90;40.23;96795.69;4790757;29;20380;-78
2023/06/14 02:16:20;;;;;;;4.85;4.45;;;;;;;17.90;40.41;96793.81;4778333;29;20428;-77
2023/06/14 02:18:45;;;;;;;5.65;4.60;;;;;;;17.87;40.28;96781.28;4796895;29;20453;-77
2023/06/14 02:21:11;;;;;;;5.32;4.80;;;;;;;17.89;40.01;96779.13;4752943;29;20196;-78
2023/06/14 02:23:37;;;;;;;6.13;5.53;;;;;;;17.88;40.37;96793.34;4791804;29;21529;-78
2023/06/14 02:26:02;;;;;;;6.50;5.18;;;;;;;17.85;40.30;96801.81;4782059;29;20220;-79
2023/06/14 02:28:28;;;;;;;8.13;4.95;;;;;;;17.71;40.90;96801.13;4769458;29;20604;-78
2023/06/14 02:30:53;;;;;;;6.63;5.40;;;;;;;17.63;40.93;96799.97;4770471;29;20200;-78
2023/06/14 02:33:19;;;;;;;6.03;5.32;;;;;;;17.50;41.58;96798.94;4770348;29;20287;-79
2023/06/14 02:35:46;;;;;;;5.80;5.18;;;;;;;17.44;41.59;96802.00;4775083;29;20115;-79
2023/06/14 02:38:11;;;;;;;5.55;4.70;;;;;;;17.29;42.30;96797.84;4767299;29;20441;-79
2023/06/14 02:40:37;;;;;;;5.75;5.25;;;;;;;17.29;42.00;96798.63;4780978;29;20421;-79
2023/06/14 02:43:02;;;;;;;5.45;4.95;;;;;;;17.17;42.26;96801.78;4769717;29;20256;-78
2023/06/14 02:45:28;;;;;;;6.35;5.50;;;;;;;17.18;42.06;96803.31;4780931;29;20502;-79
2023/06/14 02:47:55;;;;;;;6.93;5.18;;;;;;;17.16;41.87;96794.19;4777326;29;20287;-80
2023/06/14 02:50:21;;;;;;;5.78;5.03;;;;;;;17.16;42.00;96800.22;4765666;29;20188;-78
2023/06/14 02:52:47;;;;;;;6.38;5.70;;;;;;;17.20;41.90;96803.81;4780815;29;20384;-78
2023/06/14 02:55:12;;;;;;;5.70;5.10;;;;;;;17.30;41.72;96800.19;4764892;29;20411;-79
2023/06/14 02:57:38;;;;;;;6.22;5.47;;;;;;;17.42;41.53;96797.78;4781373;29;20231;-79
2023/06/14 03:00:04;;;;;;;7.75;5.30;;;;;;;17.45;41.83;96800.94;4776235;29;20218;-78
2023/06/14 03:02:29;;;;;;;5.80;5.15;;;;;;;17.41;41.60;96801.53;4773188;29;20379;-79
2023/06/14 03:04:55;;;;;;;6.38;5.43;;;;;;;17.53;41.35;96803.63;4791890;29;20111;-78
2023/06/14 03:07:23;;;;;;;5.97;5.35;;;;;;;17.57;41.25;96801.19;4794210;29;20238;-79
2023/06/14 03:09:48;;;;;;;6.45;5.55;;;;;;;17.67;41.03;96806.22;4791430;29;20188;-78
2023/06/14 03:12:14;;;;;;;6.10;5.15;;;;;;;17.74;40.98;96800.53;4793194;29;20412;-81
2023/06/14 03:14:41;;;;;;;6.03;5.32;;;;;;;17.78;40.86;96796.97;4787417;29;20207;-80
2023/06/14 03:17:08;;;;;;;6.72;5.78;;;;;;;17.88;40.53;96797.84;4784516;29;20670;-80
2023/06/14 03:19:33;;;;;;;6.90;5.38;;;;;;;17.86;40.54;96807.88;4792972;29;20410;-79
2023/06/14 03:21:59;;;;;;;6.53;5.03;;;;;;;17.85;40.96;96803.69;4775330;29;20144;-80
2023/06/14 03:24:27;;;;;;;6.13;5.53;;;;;;;17.88;40.99;96811.78;4775118;29;20291;-78
2023/06/14 03:26:52;;;;;;;5.90;4.90;;;;;;;17.91;41.21;96813.84;4795470;29;20354;-79
2023/06/14 03:29:18;;;;;;;9.45;5.35;;;;;;;17.93;40.72;96822.19;4807546;29;20167;-78
2023/06/14 03:31:58;;;;;;;7.13;5.85;;;;;;;18.04;40.93;96812.19;4773289;29;20306;-78
2023/06/14 03:34:23;;;;;;;6.35;5.75;;;;;;;17.98;40.75;96823.94;4756865;29;20192;-78
2023/06/14 03:36:49;;;;;;;5.75;5.15;;;;;;;17.97;41.19;96817.09;4752447;29;20188;-79
2023/06/14 03:39:14;;;;;;;5.95;5.32;;;;;;;17.95;41.02;96816.63;4760169;29;20410;-78
2023/06/14 03:41:40;;;;;;;6.63;5.68;;;;;;;17.96;41.02;96818.97;4783482;29;20287;-78
2023/06/14 03:44:05;;;;;;;6.93;5.20;;;;;;;17.99;40.84;96822.06;4791294;29;20360;-78
2023/06/14 03:46:31;;;;;;;5.63;5.03;;;;;;;18.02;40.88;96824.88;4761504;29;20112;-79
2023/06/14 03:48:57;;;;;;;7.40;5.03;;;;;;;17.98;41.11;96826.56;4789628;29;20409;-78
2023/06/14 03:51:22;;;;;;;7.40;5.82;;;;;;;17.99;41.22;96822.06;4777750;29;20408;-80
2023/06/14 03:53:48;;;;;;;6.20;5.35;;;;;;;18.03;40.67;96831.72;4767089;29;20647;-80
2023/06/14 03:56:13;;;;;;;7.78;5.35;;;;;;;17.98;41.21;96823.19;4784703;29;20188;-79
2023/06/14 03:58:38;;;;;;;7.07;5.47;;;;;;;17.94;41.13;96823.78;4775633;29;20299;-79
2023/06/14 04:01:04;;;;;;;6.88;4.70;;;;;;;17.98;41.32;96826.56;4776272;29;20339;-80
2023/06/14 04:03:29;;;;;;;5.85;5.35;;;;;;;18.03;41.09;96826.47;4778679;29;20406;-80
2023/06/14 04:05:56;;;;;;;6.15;5.35;;;;;;;18.08;41.19;96831.59;4761473;29;20352;-80
2023/06/14 04:08:22;;;;;;;5.55;4.88;;;;;;;18.08;41.15;96836.88;4764387;29;20429;-80
2023/06/14 04:10:47;;;;;;;5.95;5.35;;;;;;;18.05;40.84;96831.44;4776296;29;20262;-79
2023/06/14 04:13:13;;;;;;;8.45;5.10;;;;;;;18.21;41.23;96839.72;4773566;29;20371;-79
2023/06/14 04:15:42;;;;;;;7.35;5.43;;;;;;;18.24;40.95;96831.22;4758361;29;20282;-80
2023/06/14 04:18:08;;;;;;;5.78;5.28;;;;;;;18.25;40.70;96838.81;4804740;29;20662;-80
2023/06/14 04:20:34;;;;;;;6.70;5.13;;;;;;;18.26;41.07;96853.53;4770273;29;20139;-80
2023/06/14 04:23:12;;;;;;;6.97;5.57;;;;;;;18.40;40.86;96844.78;4771925;29;20300;-80
2023/06/14 04:25:38;;;;;;;6.10;5.50;;;;;;;18.37;40.73;96846.19;4752580;29;20342;-79
2023/06/14 04:28:04;;;;;;;6.05;5.10;;;;;;;18.43;41.23;96854.72;4783723;29;20367;-80
2023/06/14 04:30:31;;;;;;;7.30;5.43;;;;;;;18.49;40.79;96854.28;4789280;29;20251;-79
2023/06/14 04:32:57;;;;;;;7.22;5.28;;;;;;;18.43;40.49;96852.84;4772115;29;20260;-79
2023/06/14 04:35:23;;;;;;;5.47;4.95;;;;;;;18.63;40.38;96856.06;4788577;29;20201;-79
2023/06/14 04:37:49;;;;;;;7.60;5.47;;;;;;;18.63;40.73;96858.69;4780578;29;20296;-78
2023/06/14 04:40:15;;;;;;;5.88;5.28;;;;;;;18.73;40.33;96868.97;4764711;29;20694;-78
2023/06/14 04:42:40;;;;;;;5.50;5.00;;;;;;;18.82;40.10;96867.16;4789101;29;20421;-77
2023/06/14 04:45:07;;;;;;;5.57;4.95;;;;;;;18.94;40.17;96871.88;4787688;29;20420;-78
2023/06/14 04:47:34;;;;;;;7.53;5.47;;;;;;;18.75;40.36;96864.19;4769680;29;20443;-78
2023/06/14 04:50:00;;;;;;;5.80;5.20;;;;;;;18.83;39.78;96867.94;4784996;29;20444;-78
2023/06/14 04:52:26;;;;;;;6.60;4.88;;;;;;;18.94;40.24;96869.22;4763418;29;20405;-78
2023/06/14 04:54:53;;;;;;;5.90;5.03;;;;;;;19.02;40.25;96875.59;4753139;29;20256;-79
2023/06/14 04:57:21;;;;;;;5.97;4.75;;;;;;;19.12;39.67;96880.59;4789011;29;20180;-79
2023/06/14 04:59:47;;;;;;;5.57;5.03;;;;;;;19.10;39.63;96885.41;4769780;29;20269;-78
2023/06/14 05:02:12;;;;;;;4.93;4.43;;;;;;;19.16;39.82;96886.03;4781874;29;20241;-81
2023/06/14 05:04:41;;;;;;;6.10;5.22;;;;;;;19.16;39.95;96883.41;4782423;29;20213;-79
2023/06/14 05:07:10;;;;;;;5.82;5.07;;;;;;;19.27;39.76;96871.47;4775618;29;20356;-80
2023/06/14 05:09:36;;;;;;;5.68;5.18;;;;;;;19.26;39.44;96889.19;4761962;29;20189;-79
2023/06/14 05:12:02;;;;;;;5.40;4.78;;;;;;;19.26;39.62;96883.09;4791094;29;20196;-79
2023/06/14 05:14:27;;;;;;;6.22;4.95;;;;;;;19.07;39.91;96886.03;4782993;29;20363;-80
2023/06/14 05:16:53;;;;;;;7.10;5.15;;;;;;;19.31;39.81;96887.47;4773908;29;20500;-79
2023/06/14 05:19:20;;;;;;;5.80;4.75;;;;;;;19.45;39.52;96888.91;4791495;29;20231;-78
2023/06/14 05:21:47;;;;;;;6.95;5.38;;;;;;;19.42;39.77;96889.53;4781903;29;20362;-77
2023/06/14 05:24:13;;;;;;;5.47;4.75;;;;;;;19.53;39.49;96894.50;4790750;29;20250;-77
2023/06/14 05:26:38;;;;;;;6.20;5.10;;;;;;;19.56;39.42;96894.66;4792318;29;20301;-78
2023/06/14 05:29:04;;;;;;;7.95;5.55;;;;;;;19.51;39.27;96888.75;4746049;29;20288;-77
2023/06/14 05:31:29;;;;;;;5.18;4.60;;;;;;;19.52;39.40;96891.09;4759142;29;20313;-77
2023/06/14 05:33:55;;;;;;;6.68;4.82;;;;;;;19.44;39.38;96889.22;4775772;29;20311;-77
2023/06/14 05:36:21;;;;;;;5.32;4.80;;;;;;;19.63;39.59;96891.56;4769608;29;20260;-77
2023/06/14 05:38:46;;;;;;;7.05;5.22;;;;;;;19.56;39.18;96894.66;4769069;29;20291;-77
2023/06/14 05:41:12;;;;;;;6.35;4.70;;;;;;;19.70;38.87;96894.50;4791494;29;20205;-76
2023/06/14 05:43:37;;;;;;;5.82;4.90;;;;;;;19.70;39.54;96891.09;4762801;29;20269;-77
2023/06/14 05:46:03;;;;;;;5.85;5.25;;;;;;;19.90;38.88;96897.66;4772797;29;20243;-79
2023/06/14 05:48:30;;;;;;;6.07;5.03;;;;;;;19.93;39.07;96902.31;4768789;29;20245;-79
2023/06/14 05:50:55;;;;;;;5.35;4.85;;;;;;;20.00;38.46;96903.41;4773200;29;20280;-79
2023/06/14 05:53:21;;;;;;;7.00;5.13;;;;;;;20.17;39.01;96897.34;4758063;29;20553;-79
2023/06/14 05:55:46;;;;;;;5.43;4.93;;;;;;;20.21;38.68;96900.88;4792305;29;20192;-80
2023/06/14 05:58:13;;;;;;;5.68;4.68;;;;;;;20.27;38.79;96906.00;4789126;29;20427;-80
2023/06/14 06:00:39;;;;;;;5.43;4.93;;;;;;;20.21;38.72;96900.88;4797268;29;20286;-81
2023/06/14 06:03:04;;;;;;;7.07;4.70;;;;;;;20.21;38.70;96905.41;4776868;29;20581;-80
2023/06/14 06:05:30;;;;;;;6.20;5.47;;;;;;;20.66;38.39;96907.66;4794717;29;20203;-83
2023/06/14 06:07:56;;;;;;;5.00;4.55;;;;;;;20.63;38.21;96903.03;4767520;29;20397;-82
2023/06/14 06:10:21;;;;;;;5.28;4.88;;;;;;;20.69;38.20;96900.97;4776077;29;20052;-82
2023/06/14 06:12:48;;;;;;;6.97;5.13;;;;;;;20.53;38.02;96903.34;4788963;29;20048;-80
2023/06/14 06:15:14;;;;;;;6.40;4.70;;;;;;;20.64;38.69;96904.56;4798168;29;20316;-79
2023/06/14 06:17:39;;;;;;;7.57;4.78;;;;;;;20.79;38.44;96897.97;4764620;29;20536;-82
2023/06/14 06:20:08;;;;;;;7.65;5.22;;;;;;;21.05;37.73;96908.44;4767922;29;20203;-81
2023/06/14 06:22:34;;;;;;;5.85;4.80;;;;;;;21.35;37.54;96919.03;4761649;29;20215;-79
2023/06/14 06:24:59;;;;;;;5.75;4.32;;;;;;;21.42;37.50;96919.31;4793162;29;20396;-81
2023/06/14 06:27:25;;;;;;;5.63;4.70;;;;;;;21.54;37.52;96913.34;4769377;29;20283;-82
2023/06/14 06:29:51;;;;;;;6.53;5.07;;;;;;;21.31;37.33;96921.53;4778898;29;20214;-82
2023/06/14 06:32:17;;;;;;;5.05;4.55;;;;;;;21.36;37.45;96925.88;4774183;29;20287;-81
2023/06/14 06:34:42;;;;;;;5.15;4.50;;;;;;;21.82;36.69;96934.81;4778009;29;20195;-80
2023/06/14 06:37:08;;;;;;;5.90;4.75;;;;;;;21.98;37.38;96934.22;4770830;29;20160;-82
2023/06/14 06:39:33;;;;;;;6.35;4.70;;;;;;;22.22;36.71;96930.91;4777833;29;20565;-82
2023/06/14 06:41:59;;;;;;;6.35;5.05;;;;;;;22.33;36.05;96931.28;4781108;29;20199;-81
2023/06/14 06:44:24;;;;;;;5.35;4.80;;;;;;;22.43;35.66;96933.53;4765606;29;20328;-79
2023/06/14 06:46:50;;;;;;;5.72;4.30;;;;;;;22.52;35.29;96944.06;4770535;29;20222;-78
2023/06/14 06:49:15;;;;;;;5.30;4.80;;;;;;;22.72;35.47;96942.44;4781625;29;20271;-78
2023/06/14 06:51:42;;;;;;;6.95;4.88;;;;;;;23.00;35.01;96939.94;4771421;29;20268;-80
2023/06/14 06:54:08;;;;;;;5.78;4.45;;;;;;;22.97;34.85;96944.03;4776421;29;20252;-82
2023/06/14 06:56:34;;;;;;;4.90;4.40;;;;;;;23.51;33.99;96939.59;4772932;29;20216;-81
2023/06/14 06:59:00;;;;;;;5.28;4.78;;;;;;;23.62;33.88;96943.38;4773969;29;20449;-79
2023/06/14 07:01:25;;;;;;;5.90;5.20;;;;;;;23.68;34.02;96949.22;4795036;29;20236;-81
2023/06/14 07:03:51;;;;;;;4.93;4.43;;;;;;;23.65;33.33;96958.66;4788321;29;20184;-80
2023/06/14 07:06:20;;;;;;;5.05;4.50;;;;;;;23.80;33.23;96948.41;4767233;29;20231;-80
2023/06/14 07:08:49;;;;;;;5.15;4.65;;;;;;;24.17;33.02;96954.44;4775651;29;20511;-82
2023/06/14 07:11:15;;;;;;;5.32;4.82;;;;;;;24.16;32.81;96963.53;4752229;29;20112;-83
2023/06/14 07:13:40;;;;;;;8.27;5.13;;;;;;;24.32;33.08;96966.25;4764086;29;20291;-81
2023/06/14 07:16:06;;;;;;;6.35;4.30;;;;;;;24.19;32.78;96970.81;4794496;29;20371;-81
2023/06/14 07:18:31;;;;;;;5.78;5.05;;;;;;;24.30;32.69;96958.59;4800638;29;20383;-78
2023/06/14 07:20:58;;;;;;;6.07;5.00;;;;;;;24.16;32.12;96974.16;4788581;29;20502;-79
2023/06/14 07:23:23;;;;;;;5.22;4.53;;;;;;;24.02;32.90;96979.09;4762311;29;20216;-80
2023/06/14 07:25:50;;;;;;;5.75;5.25;;;;;;;23.71;33.27;96967.16;4753084;29;20223;-78
2023/06/14 07:28:16;;;;;;;5.70;5.13;;;;;;;23.72;33.30;96976.69;4764972;29;20533;-80
2023/06/14 07:30:42;;;;;;;7.85;5.38;;;;;;;24.15;32.59;96982.50;4764078;29;20327;-80
2023/06/14 07:33:08;;;;;;;6.38;4.65;;;;;;;24.07;32.90;96981.50;4757082;29;20246;-81
2023/06/14 07:35:33;;;;;;;5.93;4.70;;;;;;;24.53;33.48;96979.34;4788935;29;20243;-80
2023/06/14 07:37:59;;;;;;;5.45;4.95;;;;;;;24.78;31.91;96969.38;4781646;29;20754;-80
2023/06/14 07:40:24;;;;;;;6.53;4.70;;;;;;;24.97;31.72;96974.00;4795903;29;20204;-82
2023/06/14 07:42:50;;;;;;;6.85;5.10;;;;;;;25.10;31.81;96969.38;4753191;29;20195;-82
2023/06/14 07:45:16;;;;;;;6.15;4.70;;;;;;;24.95;31.77;96980.78;4793984;29;20424;-81
2023/06/14 07:47:41;;;;;;;5.57;4.88;;;;;;;24.97;31.85;96983.91;4798116;29;20211;-81
2023/06/14 07:50:07;;;;;;;7.03;4.90;;;;;;;25.40;31.29;96963.63;4791052;29;20215;-82
2023/06/14 07:52:32;;;;;;;7.10;5.05;;;;;;;25.02;31.26;96968.44;4772641;29;20185;-82
2023/06/14 07:54:58;;;;;;;5.35;4.85;;;;;;;25.57;31.54;96973.91;4783268;29;20259;-82
2023/06/14 07:57:23;;;;;;;5.32;4.85;;;;;;;25.92;31.02;96972.34;4760317;29;20108;-83
2023/06/14 07:59:49;;;;;;;5.25;4.50;;;;;;;25.22;30.76;96974.63;4761669;29;20243;-80
2023/06/14 08:02:15;;;;;;;5.38;4.65;;;;;;;25.80;30.62;96971.34;4791223;29;20033;-82
2023/06/14 08:04:41;;;;;;;5.55;5.05;;;;;;;26.06;29.86;96969.97;4776617;29;20353;-81
2023/06/14 08:07:06;;;;;;;5.43;4.45;;;;;;;26.51;30.55;96954.41;4783328;29;20256;-81
2023/06/14 08:09:32;;;;;;;5.25;4.75;;;;;;;26.91;29.66;96962.03;4769226;29;20206;-82
2023/06/14 08:11:57;;;;;;;6.85;4.97;;;;;;;27.01;29.04;96963.31;4784307;29;20060;-79
2023/06/14 08:14:23;;;;;;;10.32;5.15;;;;;;;26.96;28.83;96976.22;4758704;29;20514;-81
2023/06/14 08:16:48;;;;;;;5.85;4.70;;;;;;;26.85;28.49;96968.00;4764465;29;20208;-81
2023/06/14 08:19:16;;;;;;;6.22;5.47;;;;;;;26.76;28.75;96964.81;4794756;29;20343;-79
2023/06/14 08:21:43;;;;;;;6.18;4.60;;;;;;;26.67;27.99;96962.38;4783631;29;20316;-80
2023/06/14 08:24:12;;;;;;;6.57;5.10;;;;;;;27.09;29.29;96962.31;4764059;29;20321;-80
2023/06/14 08:26:39;;;;;;;5.53;5.03;;;;;;;27.23;28.05;96971.66;4782175;29;20525;-81
2023/06/14 08:29:05;;;;;;;5.50;5.00;;;;;;;27.62;28.38;96971.50;4791884;29;20291;-80
2023/06/14 08:31:32;;;;;;;5.47;4.93;;;;;;;27.27;28.54;96975.19;4759283;29;20386;-79
2023/06/14 08:33:57;;;;;;;5.25;4.85;;;;;;;26.66;28.16;96969.59;4762549;29;20314;-80
2023/06/14 08:36:23;;;;;;;5.78;4.68;;;;;;;27.04;28.57;96972.50;4772673;29;20260;-80
2023/06/14 08:38:48;;;;;;;5.05;4.65;;;;;;;27.18;28.07;96977.31;4761057;29;20557;-79
2023/06/14 08:41:23;;;;;;;5.63;5.10;;;;;;;27.15;27.53;96975.38;4778670;29;20214;-83
2023/06/14 08:43:49;;;;;;;6.05;4.97;;;;;;;27.20;27.88;96972.41;4773117;29;20284;-83
2023/06/14 08:46:19;;;;;;;5.47;4.97;;;;;;;27.50;27.59;96971.72;4779730;29;20264;-82
2023/06/14 08:48:46;;;;;;;6.55;5.10;;;;;;;27.28;27.85;96974.84;4784715;29;20231;-83
2023/06/14 08:51:13;;;;;;;6.25;4.88;;;;;;;27.36;27.83;96981.06;4779299;29;20064;-85
2023/06/14 08:53:41;;;;;;;5.13;4.68;;;;;;;27.14;27.45;96979.16;4754380;29;20287;-83
2023/06/14 08:56:13;;;;;;;6.05;5.00;;;;;;;27.12;28.01;96984.88;4756669;29;20191;-83
2023/06/14 08:58:46;;;;;;;5.50;4.45;;;;;;;27.30;27.42;96971.03;4781527;29;20474;-81
2023/06/14 09:01:16;;;;;;;6.80;4.93;;;;;;;27.87;26.64;96987.88;4775112;29;20288;-82
2023/06/14 09:03:42;;;;;;;4.65;4.25;;;;;;;27.84;26.77;96988.59;4778762;29;20271;-83
2023/06/14 09:06:13;;;;;;;6.22;4.32;;;;;;;27.92;26.09;96990.28;4797608;29;20321;-81
2023/06/14 09:08:42;;;;;;;5.13;4.60;;;;;;;27.57;26.40;96974.47;4764112;29;20296;-83
2023/06/14 09:11:08;;;;;;;4.47;4.05;;;;;;;27.85;26.66;96971.44;4777043;29;20455;-81
2023/06/14 09:13:34;;;;;;;4.25;3.90;;;;;;;28.25;26.42;96980.72;4785729;29;20246;-82
2023/06/14 09:16:00;;;;;;;4.80;4.40;;;;;;;28.37;26.75;96969.00;4773791;29;20272;-80
2023/06/14 09:18:40;;;;;;;5.32;4.82;;;;;;;28.80;25.62;96988.19;4787970;29;20355;-80
2023/06/14 09:21:07;;;;;;;4.82;4.43;;;;;;;28.73;25.99;96994.25;4766617;29;20208;-79
2023/06/14 09:23:44;;;;;;;6.38;4.22;;;;;;;28.31;25.68;96983.84;4795968;29;20187;-81
2023/06/14 09:26:12;;;;;;;4.72;4.03;;;;;;;28.15;25.92;96986.72;4780657;29;20307;-81
2023/06/14 09:28:48;;;;;;;4.85;4.43;;;;;;;28.62;25.45;96992.59;4767157;29;20165;-79
2023/06/14 09:31:15;;;;;;;7.97;4.55;;;;;;;28.55;25.89;96993.34;4774292;29;20330;-82
2023/06/14 09:33:47;;;;;;;5.88;4.47;;;;;;;28.93;26.16;96978.75;4763524;29;20275;-79
2023/06/14 09:36:23;;;;;;;5.43;3.88;;;;;;;29.19;24.79;96993.16;4802886;29;20207;-82
2023/06/14 09:38:56;;;;;;;4.60;4.20;;;;;;;28.61;24.69;96991.09;4758151;29;20382;-78
2023/06/14 09:41:31;;;;;;;4.72;4.03;;;;;;;28.42;25.08;96995.44;4784734;29;20134;-79
2023/06/14 09:44:00;;;;;;;5.05;4.00;;;;;;;27.87;25.14;97003.19;4787352;29;20296;-81
2023/06/14 09:46:26;;;;;;;4.10;3.58;;;;;;;27.98;25.93;96996.88;4782301;29;20264;-80
2023/06/14 09:48:52;;;;;;;4.75;4.13;;;;;;;28.29;25.10;96996.81;4794067;29;20256;-82
2023/06/14 09:51:18;;;;;;;5.65;4.25;;;;;;;28.17;24.80;96995.94;4789440;29;20203;-82
2023/06/14 09:53:43;;;;;;;5.60;4.60;;;;;;;28.50;25.67;97005.09;4758446;29;20264;-79
2023/06/14 09:56:10;;;;;;;3.90;3.60;;;;;;;28.34;24.05;97009.88;4776869;29;20349;-79
2023/06/14 09:58:37;;;;;;;7.22;4.07;;;;;;;28.72;24.17;97003.44;4785914;29;20325;-82
2023/06/14 10:01:03;;;;;;;5.22;3.60;;;;;;;29.18;23.95;97005.00;4790300;29;20291;-80
2023/06/14 10:03:29;;;;;;;5.00;3.63;;;;;;;28.64;23.75;97017.91;4769113;29;20410;-79
2023/06/14 10:06:01;;;;;;;4.05;3.65;;;;;;;28.43;24.34;97007.72;4774841;29;20196;-81
2023/06/14 10:08:28;;;;;;;4.00;3.67;;;;;;;29.27;22.73;96996.63;4767792;29;20223;-82
2023/06/14 10:10:55;;;;;;;3.88;3.58;;;;;;;29.45;23.94;97004.84;4783805;29;20382;-81
2023/06/14 10:13:21;;;;;;;4.53;3.90;;;;;;;29.76;23.75;97005.41;4801199;29;20342;-79
2023/06/14 10:15:52;;;;;;;4.15;3.60;;;;;;;28.88;23.24;97013.16;4789729;29;20180;-81
2023/06/14 10:18:35;;;;;;;4.43;3.60;;;;;;;28.82;23.48;97010.03;4793823;29;20343;-82
2023/06/14 10:21:21;;;;;;;4.13;3.72;;;;;;;28.81;23.59;97013.88;4780625;29;20232;-80
2023/06/14 10:23:47;;;;;;;4.20;3.65;;;;;;;29.07;22.91;97004.13;4794048;29;20445;-79
2023/06/14 10:26:21;;;;;;;5.20;3.38;;;;;;;28.67;23.33;97022.53;4778480;29;20171;-80
2023/06/14 10:29:22;;;;;;;3.15;2.92;;;;;;;29.21;22.46;97000.81;4775427;29;20215;-81
2023/06/14 10:31:49;;;;;;;4.30;3.90;;;;;;;29.40;22.69;96997.13;4753201;29;20266;-80
2023/06/14 10:34:28;;;;;;;5.38;3.67;;;;;;;29.94;22.18;97000.94;4771328;29;20245;-82
2023/06/14 10:37:14;;;;;;;4.00;3.28;;;;;;;29.95;21.79;96999.78;4751254;29;20380;-81
2023/06/14 10:39:45;;;;;;;3.70;3.40;;;;;;;29.72;22.95;97008.06;4734141;29;20228;-79
2023/06/14 10:42:11;;;;;;;5.32;3.40;;;;;;;30.47;22.28;96998.84;4747773;29;20197;-80
2023/06/14 10:44:44;;;;;;;3.97;3.67;;;;;;;30.70;21.55;97003.88;4754743;29;20365;-80
2023/06/14 10:47:22;;;;;;;3.63;3.33;;;;;;;30.17;23.02;96997.94;4776455;29;20229;-81
2023/06/14 10:49:52;;;;;;;4.32;3.55;;;;;;;30.35;22.00;97003.44;4753434;29;20414;-80
2023/06/14 10:52:22;;;;;;;3.08;2.88;;;;;;;30.58;21.84;97002.31;4752678;29;20217;-82
2023/06/14 10:55:22;;;;;;;4.25;3.13;;;;;;;30.39;21.38;97001.50;4769277;29;20225;-80
2023/06/14 10:57:55;;;;;;;3.60;3.10;;;;;;;30.17;21.67;96999.88;4785897;29;20438;-80
2023/06/14 11:00:22;;;;;;;4.00;3.22;;;;;;;29.95;22.44;96999.78;4764299;29;20419;-79
2023/06/14 11:03:31;;;;;;;4.28;2.90;;;;;;;30.48;21.60;97005.75;4772196;29;20353;-83
2023/06/14 11:05:58;;;;;;;3.53;3.28;;;;;;;30.40;21.06;97005.75;4776685;29;20443;-84
2023/06/14 11:08:52;;;;;;;5.07;3.60;;;;;;;30.54;22.21;97007.69;4815694;29;20267;-82
2023/06/14 11:11:18;;;;;;;4.90;3.42;;;;;;;30.38;21.35;96994.63;4792563;29;20292;-82
2023/06/14 11:13:45;;;;;;;4.15;3.30;;;;;;;29.93;21.55;96988.66;4781784;29;20173;-83
2023/06/14 11:16:15;;;;;;;3.13;2.92;;;;;;;29.93;21.26;97001.31;4771394;29;20191;-81
2023/06/14 11:18:41;;;;;;;3.53;3.17;;;;;;;30.27;20.16;97006.44;4777770;29;20471;-84
2023/06/14 11:21:08;;;;;;;3.95;2.90;;;;;;;29.91;22.18;96990.19;4762390;29;20326;-82
2023/06/14 11:23:34;;;;;;;4.65;3.25;;;;;;;28.59;22.93;97012.88;4797336;29;20124;-79
2023/06/14 11:26:00;;;;;;;3.13;2.90;;;;;;;28.49;22.58;97010.81;4784623;29;20451;-81
2023/06/14 11:28:36;;;;;;;4.55;2.92;;;;;;;28.05;23.42;97004.19;4800339;29;20179;-80
2023/06/14 11:31:03;;;;;;;3.25;2.95;;;;;;;28.43;23.16;97002.34;4763109;29;20473;-80
2023/06/14 11:33:28;;;;;;;2.83;2.63;;;;;;;28.25;23.44;97009.41;4762697;29;20260;-81
2023/06/14 11:35:54;;;;;;;4.10;3.30;;;;;;;27.64;23.26;97017.38;4776602;29;20166;-80